Time;durP1;ratioP1;P1;durP2;ratioP2;P2;SDS_P1;SDS_P2;PMS_P1;PMS_P2;Temp;Humidity;BMP_temperature;BMP_pressure;BME280_temperature;BME280_humidity;BME280_pressure;Samples;Min_cycle;Max_cycle;Signal;HPM_P1;HPM_P2
2021/08/02 00:00:37;;;;;;;18.17;12.65;;;;;;;21.58;100.00;98906.31;4696385;30;20071;-64
2021/08/02 00:03:19;;;;;;;17.52;12.57;;;;;;;21.58;100.00;98912.47;4710176;30;20034;-63
2021/08/02 00:05:47;;;;;;;15.30;12.57;;;;;;;21.58;100.00;98907.16;4700959;30;20045;-65
2021/08/02 00:08:20;;;;;;;17.25;13.43;;;;;;;21.56;100.00;98909.13;4700283;30;20190;-64
2021/08/02 00:10:48;;;;;;;17.45;13.93;;;;;;;21.56;100.00;98904.66;4712557;30;20053;-63
2021/08/02 00:13:41;;;;;;;17.70;13.90;;;;;;;21.54;100.00;98898.69;4719643;30;20052;-65
2021/08/02 00:16:07;;;;;;;19.80;14.98;;;;;;;21.54;100.00;98911.06;4708074;30;20060;-64
2021/08/02 00:18:34;;;;;;;16.83;14.68;;;;;;;21.51;100.00;98906.06;4707332;30;20049;-64
2021/08/02 00:21:05;;;;;;;18.42;13.15;;;;;;;21.46;100.00;98902.97;4700236;30;20570;-64
2021/08/02 00:23:31;;;;;;;17.02;13.70;;;;;;;21.42;100.00;98906.91;4699325;30;20099;-63
2021/08/02 00:26:04;;;;;;;17.83;14.07;;;;;;;21.39;100.00;98896.59;4716403;30;20045;-64
2021/08/02 00:28:31;;;;;;;17.20;14.90;;;;;;;21.34;100.00;98901.47;4700851;30;20049;-64
2021/08/02 00:30:57;;;;;;;18.88;14.55;;;;;;;21.22;100.00;98878.78;4700560;30;20049;-65
2021/08/02 00:33:24;;;;;;;18.40;14.38;;;;;;;21.27;100.00;98898.56;4693637;30;20541;-64
2021/08/02 00:36:08;;;;;;;17.67;14.88;;;;;;;21.21;100.00;98893.81;4710453;30;20045;-64
2021/08/02 00:39:03;;;;;;;21.88;14.73;;;;;;;21.21;100.00;98896.47;4699335;30;20064;-65
2021/08/02 00:41:55;;;;;;;20.80;16.30;;;;;;;21.17;100.00;98889.78;4697409;30;20582;-64
2021/08/02 00:44:36;;;;;;;22.05;15.40;;;;;;;21.16;100.00;98889.91;4707263;30;20150;-64
2021/08/02 00:47:05;;;;;;;18.73;15.20;;;;;;;21.12;100.00;98891.97;4701970;30;20053;-64
2021/08/02 00:49:32;;;;;;;18.50;14.73;;;;;;;21.10;100.00;98897.41;4705210;30;20045;-64
2021/08/02 00:51:58;;;;;;;21.45;16.20;;;;;;;21.09;100.00;98893.06;4683406;30;20060;-64
2021/08/02 00:54:27;;;;;;;19.10;15.45;;;;;;;21.07;100.00;98887.13;4711584;30;20135;-62
2021/08/02 00:56:57;;;;;;;18.23;15.25;;;;;;;21.06;100.00;98887.25;4706263;30;20056;-63
2021/08/02 00:59:26;;;;;;;16.15;14.15;;;;;;;21.04;100.00;98883.91;4715432;30;20044;-63
2021/08/02 01:01:53;;;;;;;20.50;15.18;;;;;;;21.00;100.00;98887.78;4699883;30;20514;-64
2021/08/02 01:04:19;;;;;;;18.23;15.20;;;;;;;20.96;100.00;98870.53;4682793;30;20541;-64
2021/08/02 01:06:47;;;;;;;19.17;14.80;;;;;;;20.93;100.00;98865.53;4702952;30;20060;-64
2021/08/02 01:09:16;;;;;;;18.85;15.77;;;;;;;20.91;100.00;98872.75;4711075;30;20518;-64
2021/08/02 01:11:42;;;;;;;23.42;16.48;;;;;;;20.87;100.00;98888.06;4703205;30;20045;-64
2021/08/02 01:14:10;;;;;;;20.40;15.90;;;;;;;20.85;100.00;98886.53;4688277;30;20049;-64
2021/08/02 01:16:38;;;;;;;19.65;16.15;;;;;;;20.82;100.00;98886.81;4721792;30;20510;-63
2021/08/02 01:19:08;;;;;;;23.38;16.65;;;;;;;20.79;100.00;98885.25;4692753;30;20057;-63
2021/08/02 01:21:39;;;;;;;23.40;15.70;;;;;;;20.75;100.00;98889.16;4698346;30;20538;-64
2021/08/02 01:24:08;;;;;;;21.02;16.20;;;;;;;20.73;100.00;98895.56;4704273;30;20049;-66
2021/08/02 01:26:42;;;;;;;18.50;15.85;;;;;;;20.71;100.00;98896.53;4689743;30;20629;-64
2021/08/02 01:29:48;;;;;;;25.70;16.35;;;;;;;20.73;100.00;98903.47;4705261;30;20060;-63
2021/08/02 01:32:18;;;;;;;18.67;15.63;;;;;;;20.72;100.00;98900.00;4705603;30;20052;-64
2021/08/02 01:34:46;;;;;;;18.75;16.45;;;;;;;20.73;100.00;98892.91;4706347;30;20049;-64
2021/08/02 01:37:13;;;;;;;19.80;15.00;;;;;;;20.72;100.00;98889.44;4699007;30;20118;-64
2021/08/02 01:39:48;;;;;;;21.58;15.65;;;;;;;20.69;100.00;98887.88;4704095;30;20097;-65
2021/08/02 01:42:14;;;;;;;21.40;17.70;;;;;;;20.60;100.00;98875.50;4714275;30;20430;-64
2021/08/02 01:44:41;;;;;;;21.58;17.60;;;;;;;20.68;100.00;98888.00;4693887;30;20079;-64
2021/08/02 01:47:15;;;;;;;21.65;16.63;;;;;;;20.69;100.00;98892.34;4715065;30;20502;-64
2021/08/02 01:49:48;;;;;;;22.27;16.45;;;;;;;20.68;100.00;98891.50;4714355;30;20100;-64
2021/08/02 01:52:22;;;;;;;22.15;16.08;;;;;;;20.68;100.00;98890.66;4683613;30;20045;-64
2021/08/02 01:54:56;;;;;;;18.02;15.30;;;;;;;20.66;100.00;98893.44;4708896;30;20135;-63
2021/08/02 01:57:38;;;;;;;21.75;16.15;;;;;;;20.66;100.00;98889.97;4699824;30;20052;-63
2021/08/02 02:00:11;;;;;;;21.65;16.52;;;;;;;20.67;100.00;98884.53;4699227;30;20104;-63
2021/08/02 02:02:50;;;;;;;18.35;15.38;;;;;;;20.69;100.00;98884.41;4699356;30;20049;-62
2021/08/02 02:05:19;;;;;;;30.60;19.63;;;;;;;20.75;100.00;98883.88;4670723;30;20465;-63
2021/08/02 02:07:52;;;;;;;18.80;16.05;;;;;;;20.80;100.00;98878.16;4669931;30;20067;-65
2021/08/02 02:10:29;;;;;;;24.45;17.10;;;;;;;20.74;100.00;98861.06;4695590;30;20052;-62
2021/08/02 02:12:57;;;;;;;23.00;17.73;;;;;;;20.87;100.00;98869.56;4689003;30;20074;-63
2021/08/02 02:15:23;;;;;;;21.77;14.68;;;;;;;20.90;100.00;98871.94;4709281;30;20438;-63
2021/08/02 02:17:50;;;;;;;20.13;15.13;;;;;;;20.91;100.00;98867.47;4712093;30;20072;-64
2021/08/02 02:20:19;;;;;;;24.38;16.05;;;;;;;20.85;100.00;98862.75;4703537;30;20092;-64
2021/08/02 02:22:46;;;;;;;22.33;16.30;;;;;;;20.89;100.00;98872.91;4711094;30;20041;-64
2021/08/02 02:25:13;;;;;;;22.38;16.85;;;;;;;20.86;100.00;98870.53;4702915;30;20052;-64
2021/08/02 02:27:41;;;;;;;24.07;17.07;;;;;;;20.85;100.00;98857.44;4713268;30;20049;-64
2021/08/02 02:30:10;;;;;;;22.40;16.08;;;;;;;20.78;100.00;98840.50;4692358;30;20049;-64
2021/08/02 02:32:38;;;;;;;22.20;16.60;;;;;;;20.72;100.00;98841.88;4713367;30;20088;-63
2021/08/02 02:35:08;;;;;;;22.83;16.27;;;;;;;20.76;100.00;98839.78;4680294;30;20438;-63
2021/08/02 02:37:35;;;;;;;27.88;15.75;;;;;;;20.85;100.00;98850.38;4680525;30;20478;-64
2021/08/02 02:40:04;;;;;;;25.15;16.30;;;;;;;20.86;100.00;98851.19;4695654;30;20060;-64
2021/08/02 02:42:31;;;;;;;27.10;16.70;;;;;;;20.87;100.00;98856.38;4696529;30;20053;-63
2021/08/02 02:44:58;;;;;;;18.40;15.73;;;;;;;20.87;100.00;98855.53;4702320;30;20144;-64
2021/08/02 02:47:25;;;;;;;23.67;16.05;;;;;;;20.88;100.00;98852.75;4699454;30;20116;-64
2021/08/02 02:49:52;;;;;;;27.42;16.27;;;;;;;20.92;100.00;98848.84;4668421;30;20107;-63
2021/08/02 02:52:18;;;;;;;24.65;17.15;;;;;;;20.99;100.00;98852.59;4698487;30;20062;-63
2021/08/02 02:54:47;;;;;;;23.10;15.93;;;;;;;21.06;100.00;98848.44;4710820;30;20057;-64
2021/08/02 02:57:14;;;;;;;24.63;16.42;;;;;;;21.11;100.00;98851.50;4707915;30;20057;-63
2021/08/02 02:59:40;;;;;;;26.52;15.75;;;;;;;21.16;100.00;98850.25;4714453;30;20434;-63
2021/08/02 03:02:07;;;;;;;22.92;15.88;;;;;;;21.20;100.00;98855.13;4701767;30;20109;-63
2021/08/02 03:04:36;;;;;;;19.65;15.32;;;;;;;21.24;100.00;98851.25;4712197;30;20782;-63
2021/08/02 03:07:02;;;;;;;23.30;16.08;;;;;;;21.26;100.00;98854.56;4683320;30;20156;-64
2021/08/02 03:09:33;;;;;;;26.65;15.73;;;;;;;21.33;100.00;98868.06;4683038;30;20058;-63
2021/08/02 03:11:59;;;;;;;26.13;16.80;;;;;;;21.36;100.00;98868.63;4652611;30;20057;-63
2021/08/02 03:14:25;;;;;;;25.50;16.60;;;;;;;21.40;100.00;98874.47;4712971;30;20491;-62
2021/08/02 03:16:51;;;;;;;25.08;15.85;;;;;;;21.43;100.00;98874.19;4699730;30;20060;-62
2021/08/02 03:19:16;;;;;;;24.83;16.33;;;;;;;21.29;100.00;98861.41;4696437;30;20049;-61
2021/08/02 03:21:42;;;;;;;29.15;16.92;;;;;;;21.45;100.00;98888.97;4699050;30;20544;-63
2021/08/02 03:24:18;;;;;;;30.63;17.50;;;;;;;21.50;100.00;98889.38;4712768;30;20135;-62
2021/08/02 03:27:06;;;;;;;28.20;20.60;;;;;;;21.51;100.00;98896.31;4705107;30;20057;-63
2021/08/02 03:29:39;;;;;;;23.03;18.73;;;;;;;21.51;100.00;98883.06;4698108;30;20062;-63
2021/08/02 03:32:09;;;;;;;24.02;20.48;;;;;;;21.52;100.00;98890.03;4683621;30;20419;-63
2021/08/02 03:34:35;;;;;;;27.75;20.83;;;;;;;21.38;100.00;98863.19;4695664;30;20136;-62
2021/08/02 03:37:04;;;;;;;22.30;17.35;;;;;;;21.56;100.00;98898.56;4698509;30;20061;-63
2021/08/02 03:39:31;;;;;;;21.30;18.15;;;;;;;21.61;100.00;98898.13;4689561;30;20122;-62
2021/08/02 03:41:57;;;;;;;25.52;18.48;;;;;;;21.68;100.00;98907.97;4701079;30;20117;-63
2021/08/02 03:44:23;;;;;;;20.38;17.42;;;;;;;21.77;100.00;98901.84;4682244;30;20140;-63
2021/08/02 03:46:52;;;;;;;24.13;17.98;;;;;;;21.85;100.00;98899.31;4706512;30;20057;-63
2021/08/02 03:49:21;;;;;;;20.00;15.85;;;;;;;21.91;100.00;98898.75;4696077;30;20110;-62
2021/08/02 03:51:58;;;;;;;18.65;15.88;;;;;;;21.83;100.00;98871.31;4696346;30;20180;-63
2021/08/02 03:54:26;;;;;;;19.02;15.10;;;;;;;22.03;100.00;98888.03;4707415;30;20048;-63
2021/08/02 03:56:53;;;;;;;16.05;11.60;;;;;;;22.09;100.00;98890.06;4708627;30;20796;-63
2021/08/02 03:59:19;;;;;;;17.15;10.55;;;;;;;22.13;100.00;98884.38;4707348;30;20140;-62
2021/08/02 04:01:45;;;;;;;11.75;8.82;;;;;;;22.17;97.20;98880.44;4684897;30;20129;-63
2021/08/02 04:04:12;;;;;;;12.13;9.60;;;;;;;22.24;95.29;98886.00;4696812;30;20061;-62
2021/08/02 04:06:38;;;;;;;11.70;9.00;;;;;;;22.25;93.48;98888.50;4694663;30;20053;-62
2021/08/02 04:09:06;;;;;;;12.88;8.95;;;;;;;22.35;90.35;98894.56;4710506;30;20059;-62
2021/08/02 04:11:32;;;;;;;11.95;8.20;;;;;;;22.39;89.09;98881.91;4695114;30;20111;-63
2021/08/02 04:13:58;;;;;;;9.75;7.88;;;;;;;22.42;87.23;98884.25;4685531;30;20131;-63
2021/08/02 04:16:24;;;;;;;10.82;7.72;;;;;;;22.45;84.66;98886.59;4695079;30;20056;-64
2021/08/02 04:18:50;;;;;;;13.40;7.80;;;;;;;22.42;83.48;98871.00;4712031;30;20053;-62
2021/08/02 04:21:16;;;;;;;12.43;8.65;;;;;;;22.49;82.77;98860.66;4708096;30;20045;-63
2021/08/02 04:23:42;;;;;;;11.88;7.85;;;;;;;22.61;82.06;98865.56;4696141;30;20048;-62
2021/08/02 04:26:12;;;;;;;9.77;8.23;;;;;;;22.68;81.06;98865.81;4692826;30;20049;-64
2021/08/02 04:28:37;;;;;;;;;;;;;;;22.70;80.36;98867.34;4713474;30;20056;-63
2021/08/02 04:31:03;;;;;;;11.32;8.00;;;;;;;22.71;79.81;98861.13;4714293;30;19922;-64
2021/08/02 04:33:29;;;;;;;10.52;8.13;;;;;;;22.74;79.76;98866.09;4708293;30;20399;-61
2021/08/02 04:35:55;;;;;;;11.50;8.35;;;;;;;22.76;79.02;98864.16;4701639;30;20053;-62
2021/08/02 04:38:21;;;;;;;11.95;8.32;;;;;;;22.77;78.96;98865.78;4684865;30;20057;-63
2021/08/02 04:40:47;;;;;;;9.32;7.75;;;;;;;22.82;79.03;98860.03;4698505;30;20049;-62
2021/08/02 04:43:12;;;;;;;13.45;7.75;;;;;;;22.87;77.37;98849.00;4698354;30;20047;-62
2021/08/02 04:45:38;;;;;;;12.57;7.88;;;;;;;22.94;77.03;98858.00;4716444;30;20057;-64
2021/08/02 04:48:04;;;;;;;11.32;7.82;;;;;;;22.99;76.58;98848.63;4714776;30;20049;-63
2021/08/02 04:50:30;;;;;;;10.93;7.32;;;;;;;23.05;75.47;98839.22;4705750;30;20060;-62
2021/08/02 04:52:56;;;;;;;9.63;7.00;;;;;;;23.11;74.01;98842.09;4700862;30;20108;-62
2021/08/02 04:55:21;;;;;;;10.27;7.13;;;;;;;23.21;72.69;98849.97;4683356;30;20061;-61
2021/08/02 04:57:47;;;;;;;12.65;6.55;;;;;;;23.27;70.36;98848.53;4702789;30;20055;-63
2021/08/02 05:00:14;;;;;;;12.55;6.80;;;;;;;23.34;69.47;98849.59;4685573;30;20049;-62
2021/08/02 05:02:39;;;;;;;8.57;6.40;;;;;;;23.44;69.40;98856.47;4699551;30;20447;-64
2021/08/02 05:05:06;;;;;;;14.07;7.03;;;;;;;23.58;68.86;98849.81;4710913;30;20062;-62
2021/08/02 05:07:32;;;;;;;7.72;5.78;;;;;;;23.71;68.13;98850.22;4700174;30;20512;-63
2021/08/02 05:09:57;;;;;;;11.00;6.22;;;;;;;23.79;66.96;98846.78;4700018;30;20049;-63
2021/08/02 05:12:23;;;;;;;14.77;6.57;;;;;;;23.87;66.44;98852.13;4671305;30;20045;-62
2021/08/02 05:14:49;;;;;;;7.13;6.05;;;;;;;23.98;65.49;98850.03;4715564;30;20185;-63
2021/08/02 05:17:15;;;;;;;9.27;6.55;;;;;;;24.00;64.90;98849.91;4702408;30;20056;-62
2021/08/02 05:19:40;;;;;;;8.77;5.88;;;;;;;24.03;65.29;98854.88;4712094;30;20041;-63
2021/08/02 05:22:06;;;;;;;8.15;5.63;;;;;;;24.08;65.74;98853.41;4713464;30;20056;-63
2021/08/02 05:24:32;;;;;;;10.13;5.93;;;;;;;24.13;65.35;98844.97;4714343;30;20066;-62
2021/08/02 05:26:59;;;;;;;11.38;6.20;;;;;;;24.23;64.88;98852.88;4715646;30;20157;-63
2021/08/02 05:29:26;;;;;;;9.60;5.90;;;;;;;24.29;64.39;98845.06;4720637;30;20041;-64
2021/08/02 05:31:52;;;;;;;9.73;5.90;;;;;;;24.39;63.34;98847.63;4699027;30;20057;-63
2021/08/02 05:34:17;;;;;;;7.80;5.63;;;;;;;24.51;63.03;98824.22;4715129;30;20059;-62
2021/08/02 05:36:43;;;;;;;7.47;5.22;;;;;;;24.84;61.74;98816.19;4715714;30;20092;-62
2021/08/02 05:39:09;;;;;;;9.40;5.95;;;;;;;25.17;60.66;98833.03;4714545;30;20548;-64
2021/08/02 05:41:35;;;;;;;8.10;5.60;;;;;;;25.33;60.17;98834.88;4695746;30;20064;-63
2021/08/02 05:44:01;;;;;;;9.13;5.25;;;;;;;25.28;59.68;98848.63;4714202;30;20055;-60
2021/08/02 05:46:27;;;;;;;9.93;6.80;;;;;;;25.25;60.04;98837.50;4709285;30;20049;-63
2021/08/02 05:48:53;;;;;;;8.55;5.70;;;;;;;25.27;60.02;98830.19;4700000;30;20116;-62
2021/08/02 05:51:19;;;;;;;6.88;5.72;;;;;;;25.39;59.98;98834.16;4707177;30;20049;-64
2021/08/02 05:53:45;;;;;;;8.02;5.95;;;;;;;25.45;60.08;98828.19;4711110;30;20053;-63
2021/08/02 05:56:11;;;;;;;6.88;5.57;;;;;;;25.57;59.67;98836.69;4713428;30;20056;-64
2021/08/02 05:58:38;;;;;;;8.95;5.80;;;;;;;25.58;59.37;98843.69;4713565;30;20135;-63
2021/08/02 06:01:04;;;;;;;7.57;5.68;;;;;;;25.73;59.37;98840.16;4715134;30;20053;-62
2021/08/02 06:03:30;;;;;;;9.10;5.68;;;;;;;25.97;59.07;98843.75;4711334;30;20052;-64
2021/08/02 06:05:56;;;;;;;7.13;6.03;;;;;;;25.99;58.56;98839.09;4703183;30;20049;-67
2021/08/02 06:08:22;;;;;;;7.30;5.22;;;;;;;26.09;58.63;98835.25;4707771;30;20139;-63
2021/08/02 06:10:48;;;;;;;9.00;5.93;;;;;;;26.27;58.40;98835.06;4708417;30;20127;-63
2021/08/02 06:13:14;;;;;;;10.75;5.40;;;;;;;26.25;57.91;98829.03;4697490;30;20049;-64
2021/08/02 06:15:39;;;;;;;6.50;5.82;;;;;;;26.24;58.25;98826.53;4704058;30;20411;-64
2021/08/02 06:18:05;;;;;;;10.55;6.00;;;;;;;26.38;58.28;98813.31;4714689;30;20060;-62
2021/08/02 06:20:31;;;;;;;9.02;6.82;;;;;;;26.43;57.97;98820.81;4703348;30;20056;-61
2021/08/02 06:22:57;;;;;;;8.30;6.55;;;;;;;26.54;58.18;98807.91;4703260;30;20052;-60
2021/08/02 06:25:23;;;;;;;7.68;6.28;;;;;;;26.74;57.84;98812.81;4703426;30;20072;-63
2021/08/02 06:27:48;;;;;;;7.80;6.30;;;;;;;26.77;58.16;98807.09;4693185;30;20056;-60
2021/08/02 06:30:14;;;;;;;10.90;6.45;;;;;;;26.99;57.92;98806.31;4713397;30;20072;-66
2021/08/02 06:32:40;;;;;;;10.48;7.15;;;;;;;27.21;57.12;98801.97;4708129;30;20045;-58
2021/08/02 06:35:06;;;;;;;11.10;6.95;;;;;;;27.40;56.86;98774.75;4702801;30;20049;-65
2021/08/02 06:37:32;;;;;;;10.52;8.07;;;;;;;28.08;54.49;98793.25;4699642;30;20046;-60
2021/08/02 06:39:58;;;;;;;11.82;8.35;;;;;;;28.61;52.95;98810.78;4706253;30;20060;-64
2021/08/02 06:42:23;;;;;;;11.45;6.55;;;;;;;28.70;53.12;98803.47;4687585;30;20352;-64
2021/08/02 06:44:49;;;;;;;12.00;6.80;;;;;;;28.70;52.93;98803.47;4706033;30;20053;-63
2021/08/02 06:47:15;;;;;;;9.38;7.25;;;;;;;28.65;53.30;98804.03;4704472;30;20048;-62
2021/08/02 06:49:41;;;;;;;11.35;8.27;;;;;;;28.46;53.78;98810.00;4704743;30;20059;-62
2021/08/02 06:52:07;;;;;;;9.48;7.88;;;;;;;28.49;53.92;98804.25;4707857;30;20056;-63
2021/08/02 06:54:32;;;;;;;9.00;7.53;;;;;;;28.79;53.36;98817.56;4683232;30;20056;-60
2021/08/02 06:56:59;;;;;;;9.45;6.75;;;;;;;28.99;52.80;98811.44;4703213;30;20550;-60
2021/08/02 06:59:24;;;;;;;10.32;7.22;;;;;;;29.02;52.68;98811.03;4701511;30;20142;-60
2021/08/02 07:01:50;;;;;;;12.02;7.57;;;;;;;29.23;52.25;98812.03;4703434;30;20087;-59
2021/08/02 07:04:16;;;;;;;9.68;7.47;;;;;;;29.35;52.05;98805.19;4686423;30;20140;-61
2021/08/02 07:06:44;;;;;;;10.38;6.85;;;;;;;29.58;51.37;98815.63;4704998;30;20061;-62
2021/08/02 07:09:10;;;;;;;12.07;6.83;;;;;;;29.40;51.32;98808.09;4701357;30;20055;-59
2021/08/02 07:11:35;;;;;;;9.82;7.20;;;;;;;29.29;51.62;98816.63;4699837;30;20422;-60
2021/08/02 07:14:01;;;;;;;8.30;6.60;;;;;;;28.63;52.12;98798.03;4697004;30;20049;-60
2021/08/02 07:16:27;;;;;;;9.68;6.78;;;;;;;28.15;53.95;98814.75;4698216;30;20481;-58
2021/08/02 07:18:54;;;;;;;10.40;7.43;;;;;;;27.73;55.20;98812.69;4706699;30;20135;-61
2021/08/02 07:21:20;;;;;;;10.98;6.75;;;;;;;27.42;56.24;98800.25;4708537;30;20199;-61
2021/08/02 07:23:47;;;;;;;11.38;6.75;;;;;;;27.24;56.96;98791.75;4705388;30;20585;-60
2021/08/02 07:26:14;;;;;;;9.82;7.55;;;;;;;27.17;57.54;98806.81;4689560;30;20143;-58
2021/08/02 07:28:39;;;;;;;9.65;6.57;;;;;;;26.80;58.35;98783.56;4711358;30;20087;-57
2021/08/02 07:31:05;;;;;;;9.77;6.75;;;;;;;26.63;59.31;98792.69;4710168;30;20090;-60
2021/08/02 07:33:31;;;;;;;8.38;6.60;;;;;;;26.40;60.03;98791.81;4704909;30;20462;-61
2021/08/02 07:35:57;;;;;;;12.27;7.53;;;;;;;26.17;61.30;98787.22;4698953;30;20577;-58
2021/08/02 07:38:23;;;;;;;10.35;7.68;;;;;;;26.21;61.47;98779.75;4705848;30;20115;-60
2021/08/02 07:40:49;;;;;;;9.32;7.38;;;;;;;26.13;61.99;98791.25;4705008;30;20053;-59
2021/08/02 07:43:15;;;;;;;15.18;8.77;;;;;;;25.47;68.85;98809.38;4705171;30;20049;-63
2021/08/02 07:45:41;;;;;;;15.00;11.38;;;;;;;23.97;82.80;98807.75;4692245;30;20056;-62
2021/08/02 07:48:07;;;;;;;13.07;10.93;;;;;;;23.30;90.23;98796.00;4709349;30;20103;-64
2021/08/02 07:50:33;;;;;;;13.70;10.85;;;;;;;23.05;94.48;98797.63;4690912;30;20049;-62
2021/08/02 07:53:00;;;;;;;13.77;10.73;;;;;;;22.87;95.73;98802.13;4707414;30;20045;-59
2021/08/02 07:55:25;;;;;;;12.57;10.38;;;;;;;22.76;96.31;98800.53;4712391;30;20048;-60
2021/08/02 07:57:51;;;;;;;14.75;11.38;;;;;;;22.66;97.23;98794.41;4708325;30;20555;-57
2021/08/02 08:00:17;;;;;;;13.98;11.32;;;;;;;22.59;98.85;98784.59;4704029;30;20053;-57
2021/08/02 08:02:44;;;;;;;14.60;10.88;;;;;;;22.61;99.62;98796.69;4704829;30;20058;-58
2021/08/02 08:05:11;;;;;;;13.52;11.25;;;;;;;22.57;100.00;98781.25;4705745;30;20140;-58
2021/08/02 08:07:50;;;;;;;16.33;12.18;;;;;;;22.64;100.00;98775.22;4693822;30;20115;-59
2021/08/02 08:10:18;;;;;;;23.83;13.40;;;;;;;22.91;100.00;98770.84;4708047;30;20047;-57
2021/08/02 08:12:48;;;;;;;16.95;13.95;;;;;;;23.31;99.66;98744.63;4707999;30;20056;-58
2021/08/02 08:15:15;;;;;;;17.58;11.13;;;;;;;23.67;97.26;98757.78;4692783;30;20098;-61
2021/08/02 08:17:41;;;;;;;13.57;11.15;;;;;;;23.55;96.78;98763.38;4691810;30;20056;-61
2021/08/02 08:20:09;;;;;;;13.48;10.32;;;;;;;23.58;95.24;98756.94;4691834;30;20045;-57
2021/08/02 08:22:36;;;;;;;15.80;10.77;;;;;;;23.52;94.61;98747.78;4706537;30;20045;-58
2021/08/02 08:25:02;;;;;;;13.23;11.07;;;;;;;23.49;94.47;98755.22;4697791;30;20071;-59
2021/08/02 08:27:29;;;;;;;14.57;11.50;;;;;;;23.38;94.79;98745.66;4699309;30;20149;-59
2021/08/02 08:29:54;;;;;;;12.75;11.45;;;;;;;23.46;95.19;98743.09;4704804;30;20060;-61
2021/08/02 08:32:20;;;;;;;15.50;12.48;;;;;;;23.47;94.84;98725.34;4683872;30;20499;-60
2021/08/02 08:34:46;;;;;;;15.43;11.90;;;;;;;23.54;95.08;98732.53;4699323;30;20202;-61
2021/08/02 08:37:12;;;;;;;14.45;11.50;;;;;;;23.42;94.48;98706.38;4701441;30;20100;-62
2021/08/02 08:39:38;;;;;;;17.45;12.27;;;;;;;23.53;94.77;98722.91;4684412;30;20205;-61
2021/08/02 08:42:04;;;;;;;16.15;11.43;;;;;;;23.48;94.24;98717.25;4698120;30;20053;-61
2021/08/02 08:44:30;;;;;;;13.27;11.20;;;;;;;23.55;93.87;98723.56;4697835;30;20128;-60
2021/08/02 08:46:56;;;;;;;15.13;10.05;;;;;;;23.64;91.21;98727.09;4683845;30;20558;-62
2021/08/02 08:49:23;;;;;;;11.77;9.20;;;;;;;23.61;87.98;98683.13;4683400;30;20486;-62
2021/08/02 08:51:48;;;;;;;13.57;9.93;;;;;;;23.94;87.43;98664.66;4699198;30;20066;-61
2021/08/02 08:54:14;;;;;;;11.45;8.68;;;;;;;24.35;85.41;98662.94;4683430;30;20060;-60
2021/08/02 08:56:40;;;;;;;16.25;9.68;;;;;;;24.94;82.28;98676.94;4699087;30;20053;-60
2021/08/02 08:59:13;;;;;;;10.65;8.52;;;;;;;25.35;76.50;98673.19;4701435;30;20056;-59
2021/08/02 09:01:39;;;;;;;11.82;8.18;;;;;;;25.46;75.49;98664.00;4700943;30;20061;-59
2021/08/02 09:04:05;;;;;;;9.90;7.88;;;;;;;25.41;74.17;98667.19;4716432;30;20597;-60
2021/08/02 09:06:32;;;;;;;9.38;8.38;;;;;;;25.83;73.07;98666.03;4697433;30;20060;-61
2021/08/02 09:08:58;;;;;;;9.60;8.60;;;;;;;26.05;72.90;98663.44;4703374;30;20049;-59
2021/08/02 09:11:25;;;;;;;12.05;8.30;;;;;;;26.01;72.82;98655.97;4699298;30;20065;-53
2021/08/02 09:13:53;;;;;;;18.10;9.50;;;;;;;25.96;73.47;98653.78;4708362;30;20048;-61
2021/08/02 09:16:26;;;;;;;14.30;8.75;;;;;;;25.83;73.15;98656.22;4690379;30;20059;-63
2021/08/02 09:19:04;;;;;;;9.85;8.85;;;;;;;25.62;72.79;98659.47;4684424;30;20045;-61
2021/08/02 09:21:49;;;;;;;16.15;9.70;;;;;;;25.56;72.56;98643.34;4683200;30;20160;-63
2021/08/02 09:24:27;;;;;;;13.23;9.55;;;;;;;25.93;71.21;98643.50;4697881;30;20067;-62
2021/08/02 09:26:53;;;;;;;10.73;8.83;;;;;;;26.77;68.42;98645.25;4698749;30;20073;-63
2021/08/02 09:29:26;;;;;;;14.30;9.60;;;;;;;27.40;66.35;98646.63;4697281;30;20080;-63
2021/08/02 09:31:52;;;;;;;13.32;9.70;;;;;;;28.22;62.73;98625.84;4699723;30;20053;-62
2021/08/02 09:34:20;;;;;;;16.10;9.95;;;;;;;29.06;60.14;98634.81;4715851;30;20119;-61
2021/08/02 09:36:49;;;;;;;12.73;8.70;;;;;;;30.67;55.92;98618.94;4700232;30;20053;-62
2021/08/02 09:39:16;;;;;;;13.70;9.85;;;;;;;32.20;51.19;98627.19;4714481;30;20056;-61
2021/08/02 09:41:43;;;;;;;17.15;12.90;;;;;;;32.16;50.54;98617.91;4715693;30;20518;-62
2021/08/02 09:44:19;;;;;;;14.98;10.43;;;;;;;32.42;49.25;98619.59;4710103;30;20469;-61
2021/08/02 09:47:03;;;;;;;17.77;10.10;;;;;;;33.75;47.21;98609.19;4698360;30;20126;-61
2021/08/02 09:49:46;;;;;;;16.98;10.25;;;;;;;34.43;44.55;98598.91;4694361;30;20474;-61
2021/08/02 09:52:13;;;;;;;16.23;11.35;;;;;;;35.04;42.52;98603.06;4698239;30;20522;-61
2021/08/02 09:54:40;;;;;;;16.35;10.23;;;;;;;35.23;42.77;98607.28;4682900;30;20057;-62
2021/08/02 09:57:06;;;;;;;16.65;10.00;;;;;;;35.94;41.82;98608.75;4698438;30;20049;-61
2021/08/02 09:59:34;;;;;;;15.70;10.30;;;;;;;37.03;38.20;98601.97;4698182;30;20059;-61
2021/08/02 10:02:00;;;;;;;16.13;9.85;;;;;;;37.92;36.85;98596.31;4698352;30;20060;-61
2021/08/02 10:04:30;;;;;;;16.50;9.48;;;;;;;38.79;34.95;98604.19;4699854;30;20135;-62
2021/08/02 10:06:56;;;;;;;14.68;8.43;;;;;;;38.66;34.53;98594.63;4715344;30;20067;-61
2021/08/02 10:09:22;;;;;;;9.15;7.32;;;;;;;38.08;34.60;98592.72;4699511;30;20045;-61
2021/08/02 10:11:47;;;;;;;15.75;7.50;;;;;;;38.11;34.55;98587.59;4715213;30;20103;-61
2021/08/02 10:14:14;;;;;;;9.52;6.05;;;;;;;36.62;34.71;98594.28;4701176;30;20597;-61
2021/08/02 10:16:44;;;;;;;10.52;5.82;;;;;;;34.79;38.15;98584.38;4682225;30;20223;-61
2021/08/02 10:19:12;;;;;;;9.23;6.63;;;;;;;34.42;38.81;98587.28;4682455;30;20525;-62
2021/08/02 10:21:39;;;;;;;11.32;7.47;;;;;;;35.65;36.93;98587.06;4704286;30;20059;-60
2021/08/02 10:24:10;;;;;;;8.63;6.45;;;;;;;37.22;33.73;98573.50;4708077;30;20534;-59
2021/08/02 10:26:36;;;;;;;7.55;6.38;;;;;;;37.89;33.21;98575.97;4705109;30;20059;-61
2021/08/02 10:29:04;;;;;;;8.57;6.80;;;;;;;38.81;30.45;98566.72;4689514;30;20127;-60
2021/08/02 10:31:41;;;;;;;;;;;;;;;39.83;30.54;98582.50;4707004;30;20045;-59
2021/08/02 10:34:23;;;;;;;7.60;6.57;;;;;;;40.05;28.83;98593.94;4703433;30;19927;-60
2021/08/02 10:37:04;;;;;;;9.15;6.25;;;;;;;38.43;30.81;98579.44;4706260;30;20045;-61
2021/08/02 10:39:33;;;;;;;10.00;6.25;;;;;;;36.78;33.09;98586.16;4703932;30;20435;-60
2021/08/02 10:42:09;;;;;;;10.52;6.13;;;;;;;36.51;34.11;98571.63;4691490;30;20166;-48
2021/08/02 10:44:35;;;;;;;12.07;6.65;;;;;;;36.95;33.33;98575.28;4693113;30;20408;-48
2021/08/02 10:47:09;;;;;;;9.10;5.97;;;;;;;37.32;32.70;98567.38;4688395;30;20514;-52
2021/08/02 10:49:36;;;;;;;7.88;6.25;;;;;;;36.43;33.93;98585.59;4704646;30;20108;-58
2021/08/02 10:52:02;;;;;;;7.87;6.23;;;;;;;35.79;35.63;98584.13;4690038;30;20379;-57
2021/08/02 10:54:38;;;;;;;8.68;6.20;;;;;;;35.57;35.46;98583.94;4704731;30;20053;-55
2021/08/02 10:57:12;;;;;;;7.55;6.20;;;;;;;35.83;35.23;98563.63;4691132;30;20073;-54
2021/08/02 10:59:38;;;;;;;8.40;6.32;;;;;;;35.62;35.45;98560.53;4704763;30;20046;-59
2021/08/02 11:02:09;;;;;;;7.43;5.70;;;;;;;34.97;35.87;98559.94;4704990;30;20052;-58
2021/08/02 11:04:37;;;;;;;11.07;5.68;;;;;;;34.18;36.78;98563.16;4693502;30;20045;-58
2021/08/02 11:07:02;;;;;;;7.13;5.63;;;;;;;33.54;37.80;98554.69;4706625;30;20148;-63
2021/08/02 11:09:30;;;;;;;8.68;6.00;;;;;;;33.23;38.51;98548.66;4704986;30;20207;-59
2021/08/02 11:12:13;;;;;;;7.78;6.30;;;;;;;33.08;38.35;98539.03;4696092;30;20139;-60
2021/08/02 11:14:47;;;;;;;12.35;6.03;;;;;;;33.40;38.24;98546.97;4707516;30;20049;-58
2021/08/02 11:17:24;;;;;;;8.13;5.70;;;;;;;34.56;36.16;98546.53;4707006;30;20474;-61
2021/08/02 11:20:00;;;;;;;7.88;6.03;;;;;;;35.87;33.95;98551.25;4706082;30;20235;-60
2021/08/02 11:22:26;;;;;;;8.38;6.22;;;;;;;34.94;35.74;98546.09;4705524;30;20611;-58
2021/08/02 11:24:57;;;;;;;8.07;6.38;;;;;;;33.74;37.68;98540.13;4703970;30;20045;-59
2021/08/02 11:27:23;;;;;;;8.13;6.22;;;;;;;32.62;39.83;98535.97;4704884;30;20053;-61